Time;durP1;ratioP1;P1;durP2;ratioP2;P2;SDS_P1;SDS_P2;PMS_P1;PMS_P2;Temp;Humidity;BMP_temperature;BMP_pressure;BME280_temperature;BME280_humidity;BME280_pressure;Samples;Min_cycle;Max_cycle;Signal;HPM_P1;HPM_P2
2023/09/24 00:00:20;;;;;;;10.70;4.20;;;;;;;19.23;72.18;98953.25;105139;1270;71182;-24
2023/09/24 00:02:49;;;;;;;7.00;4.50;;;;;;;18.97;72.65;98953.40;105176;1264;74287;-23
2023/09/24 00:05:17;;;;;;;6.70;4.40;;;;;;;18.73;73.21;98957.63;105184;1270;72639;-23
2023/09/24 00:15:30;;;;;;;9.70;4.10;;;;;;;19.47;72.57;98957.96;102739;1290;599961;-22
2023/09/24 00:18:00;;;;;;;8.60;4.20;;;;;;;19.28;72.80;98960.90;104849;1272;61270;-22
2023/09/24 00:28:10;;;;;;;6.20;3.50;;;;;;;18.49;75.00;98968.51;102588;1293;600017;-22
2023/09/24 00:30:41;;;;;;;5.90;3.10;;;;;;;18.99;74.84;98975.05;104844;1271;61318;-22
2023/09/24 00:40:47;;;;;;;10.60;4.30;;;;;;;19.13;73.36;98962.46;102613;1292;600183;-22
2023/09/24 00:43:32;;;;;;;9.00;4.50;;;;;;;18.88;73.68;98965.00;104821;1267;61161;-21
2023/09/24 00:46:04;;;;;;;7.30;4.40;;;;;;;18.66;74.26;98962.51;104837;1271;61254;-22
2023/09/24 00:48:32;;;;;;;7.00;3.50;;;;;;;18.50;74.81;98958.38;104856;1271;72224;-22
2023/09/24 00:51:02;;;;;;;6.90;3.20;;;;;;;18.95;75.13;98950.68;104841;1270;72444;-22
2023/09/24 00:53:30;;;;;;;7.80;3.90;;;;;;;19.47;73.60;98947.56;102148;1267;3138313;-22
2023/09/24 00:55:58;;;;;;;8.70;4.80;;;;;;;19.51;72.79;98950.95;105639;1258;61151;-21
2023/09/24 00:58:27;;;;;;;7.80;4.60;;;;;;;19.34;72.77;98952.08;105545;1252;61262;-22
2023/09/24 01:00:55;;;;;;;8.00;3.90;;;;;;;19.11;72.96;98954.15;105700;1259;72194;-22
2023/09/24 01:03:23;;;;;;;6.50;4.50;;;;;;;18.85;73.37;98951.63;105727;1255;74305;-21
2023/09/24 01:05:52;;;;;;;10.30;4.80;;;;;;;18.61;74.25;98958.46;105771;1253;72641;-21
2023/09/24 01:16:04;;;;;;;6.90;3.60;;;;;;;19.35;73.12;98957.09;102624;1293;600126;-21
2023/09/24 01:18:34;;;;;;;5.90;4.20;;;;;;;19.08;73.57;98955.16;104876;1270;61186;-21
2023/09/24 01:21:05;;;;;;;5.20;4.20;;;;;;;18.82;73.97;98958.03;104885;1269;61148;-22
2023/09/24 01:23:36;;;;;;;9.30;4.50;;;;;;;18.56;74.34;98960.88;104807;1267;72756;-22
2023/09/24 01:37:14;;;;;;;7.10;3.60;;;;;;;19.00;73.77;98974.58;102634;1295;600482;-22
2023/09/24 01:39:43;;;;;;;6.30;4.00;;;;;;;18.72;74.11;98977.77;104836;1267;61122;-22
2023/09/24 01:42:13;;;;;;;8.10;5.40;;;;;;;18.47;74.95;98971.75;104767;1275;61120;-22
2023/09/24 01:44:41;;;;;;;10.10;4.00;;;;;;;18.23;75.69;98970.10;105240;1266;72186;-22
2023/09/24 01:54:57;;;;;;;8.50;3.90;;;;;;;18.96;74.85;98979.92;102559;1295;600327;-22
2023/09/24 01:57:24;;;;;;;10.30;4.10;;;;;;;18.76;74.61;98979.63;104748;1272;61143;-22
2023/09/24 02:07:40;;;;;;;6.60;3.20;;;;;;;17.66;78.62;99000.33;102630;1292;600251;-22
2023/09/24 02:10:08;;;;;;;6.80;3.40;;;;;;;18.11;77.53;98996.36;104833;1267;61114;-22
2023/09/24 02:12:36;;;;;;;4.00;3.20;;;;;;;18.47;76.22;98992.84;104828;1267;61116;-22
2023/09/24 02:15:12;;;;;;;7.20;3.90;;;;;;;18.38;76.04;98996.11;104790;1267;71033;-22
2023/09/24 02:17:41;;;;;;;6.70;4.10;;;;;;;18.11;76.54;99005.88;104741;1267;73151;-22
2023/09/24 02:20:23;;;;;;;7.30;3.70;;;;;;;17.82;77.32;99009.30;102575;1267;3014906;-22
2023/09/24 02:30:36;;;;;;;8.90;3.20;;;;;;;18.32;77.87;99022.88;102609;1295;600162;-22
2023/09/24 02:40:47;;;;;;;8.00;4.10;;;;;;;17.67;78.60;99025.70;102665;1293;600195;-24
2023/09/24 02:50:54;;;;;;;5.60;3.40;;;;;;;18.33;76.85;99026.35;102606;1294;600136;-24
2023/09/24 02:53:22;;;;;;;10.60;4.50;;;;;;;18.10;76.80;99019.65;104895;1266;61180;-24
2023/09/24 02:55:50;;;;;;;7.70;3.90;;;;;;;17.82;77.61;99018.02;104878;1266;61120;-24
2023/09/24 02:58:19;;;;;;;6.00;3.90;;;;;;;17.54;78.53;99014.80;104837;1270;72209;-24
2023/09/24 03:00:46;;;;;;;6.40;3.00;;;;;;;17.32;79.36;99014.86;104814;1265;74259;-24
2023/09/24 03:03:15;;;;;;;4.80;3.30;;;;;;;17.69;79.16;99009.32;104717;1273;71468;-23
2023/09/24 03:05:44;;;;;;;5.90;3.40;;;;;;;18.14;77.22;99008.30;102515;1271;61187;-24
2023/09/24 03:08:15;;;;;;;7.80;3.50;;;;;;;18.15;76.44;99013.70;105220;1264;61167;-23
2023/09/24 03:10:45;;;;;;;10.20;4.00;;;;;;;17.94;76.81;99013.75;105246;1260;71121;-24
2023/09/24 03:13:13;;;;;;;9.40;4.90;;;;;;;17.68;77.28;99018.75;105134;1260;74385;-23
2023/09/24 03:15:41;;;;;;;21.40;12.40;;;;;;;17.43;77.89;99019.57;105175;1267;70333;-23
2023/09/24 03:18:08;;;;;;;8.70;5.40;;;;;;;17.20;78.23;99024.81;105118;1260;61114;-24
2023/09/24 03:20:39;;;;;;;9.30;4.30;;;;;;;17.55;78.30;99025.56;105189;1262;61173;-24
2023/09/24 03:23:10;;;;;;;5.80;4.40;;;;;;;17.96;76.91;99029.31;105181;1261;70794;-24
2023/09/24 03:37:16;;;;;;;5.80;3.00;;;;;;;16.85;79.43;99043.88;102585;1294;600135;-21
2023/09/24 03:39:45;;;;;;;8.60;3.40;;;;;;;17.30;79.88;99055.21;104886;1269;61173;-22
2023/09/24 03:42:14;;;;;;;6.10;4.20;;;;;;;17.75;78.91;99058.31;104847;1273;61194;-22
2023/09/24 03:44:41;;;;;;;9.10;3.80;;;;;;;17.78;78.03;99065.17;104849;1271;72219;-21
2023/09/24 03:47:09;;;;;;;6.10;3.90;;;;;;;17.61;77.86;99074.80;104582;1267;74317;-22
2023/09/24 03:57:20;;;;;;;7.80;3.40;;;;;;;16.79;80.91;99064.64;102645;1291;600105;-23
2023/09/24 03:59:49;;;;;;;12.80;3.40;;;;;;;17.37;81.13;99061.96;105541;1261;61178;-23
2023/09/24 04:09:57;;;;;;;5.30;3.70;;;;;;;17.60;78.74;99072.95;102677;1293;600045;-22
2023/09/24 04:12:25;;;;;;;8.60;4.20;;;;;;;17.35;79.25;99069.87;105063;1267;61193;-22
2023/09/24 04:14:53;;;;;;;4.00;2.40;;;;;;;17.19;79.94;99069.31;104814;1267;61130;-21
2023/09/24 04:17:21;;;;;;;5.00;2.50;;;;;;;17.64;79.66;99077.44;105014;1269;72239;-21
2023/09/24 04:26:46;;;;;;;6.00;3.30;;;;;;;17.95;77.34;99085.09;102617;1293;600099;-22
2023/09/24 04:36:54;;;;;;;5.80;3.70;;;;;;;18.56;77.26;99082.83;102754;1290;599974;-22
2023/09/24 04:39:22;;;;;;;7.70;4.00;;;;;;;18.68;76.26;99093.42;105027;1264;61187;-22
2023/09/24 04:41:50;;;;;;;4.90;3.90;;;;;;;18.59;75.69;99098.98;104936;1264;61142;-21
2023/09/24 04:44:18;;;;;;;4.10;3.40;;;;;;;18.45;75.85;99099.02;104872;1270;70927;-21
2023/09/24 04:46:46;;;;;;;7.00;3.60;;;;;;;18.30;76.29;99096.32;104865;1264;74354;-21
2023/09/24 04:56:13;;;;;;;4.80;2.70;;;;;;;19.26;75.39;99110.66;102596;1292;600254;-22
2023/09/24 04:58:40;;;;;;;5.20;3.20;;;;;;;19.58;73.90;99103.83;104883;1269;61236;-22
2023/09/24 05:08:52;;;;;;;7.30;3.50;;;;;;;19.21;74.38;99138.23;102595;1292;599929;-22
2023/09/24 05:11:22;;;;;;;6.60;3.40;;;;;;;19.10;74.63;99135.77;105198;1266;61183;-21
2023/09/24 05:13:50;;;;;;;3.30;2.10;;;;;;;19.01;75.04;99130.27;105177;1263;61149;-22
2023/09/24 05:16:19;;;;;;;4.70;2.90;;;;;;;19.50;74.05;99128.53;105117;1268;72222;-22
2023/09/24 05:18:47;;;;;;;6.70;2.50;;;;;;;19.95;72.32;99125.17;105253;1262;74252;-22
2023/09/24 05:21:16;;;;;;;6.80;3.00;;;;;;;20.14;71.93;99125.00;105195;1264;72276;-22
2023/09/24 05:23:45;;;;;;;4.10;3.00;;;;;;;20.10;71.88;99128.38;102930;1266;61361;-21
2023/09/24 05:26:14;;;;;;;7.10;3.20;;;;;;;19.94;72.01;99133.51;105295;1259;61145;-21
2023/09/24 05:28:42;;;;;;;5.20;3.70;;;;;;;19.72;72.17;99137.00;105250;1266;72240;-21
2023/09/24 05:31:09;;;;;;;7.20;3.50;;;;;;;19.52;72.38;99133.32;105220;1263;74327;-21
2023/09/24 05:33:38;;;;;;;5.70;3.50;;;;;;;19.31;72.75;99132.66;105096;1266;71391;-22
2023/09/24 05:43:49;;;;;;;8.40;3.60;;;;;;;20.32;71.45;99143.31;102630;1294;600138;-22
2023/09/24 05:46:16;;;;;;;6.20;3.80;;;;;;;20.22;71.17;99146.70;104919;1266;61178;-22
2023/09/24 05:48:44;;;;;;;5.40;3.70;;;;;;;20.06;71.20;99151.35;104835;1266;61030;-22
2023/09/24 05:51:12;;;;;;;6.70;4.60;;;;;;;19.87;71.84;99155.05;104829;1271;71767;-21
2023/09/24 05:53:40;;;;;;;10.20;4.50;;;;;;;19.70;72.34;99155.92;104824;1266;73181;-21
2023/09/24 05:56:08;;;;;;;8.00;4.50;;;;;;;19.59;72.75;99153.98;104849;1271;71475;-21
2023/09/24 06:05:43;;;;;;;5.10;3.20;;;;;;;21.03;69.86;99151.21;102601;1291;600864;-22
2023/09/24 06:08:11;;;;;;;4.70;3.20;;;;;;;20.98;69.31;99152.08;104857;1269;61170;-21
2023/09/24 06:18:22;;;;;;;4.30;2.80;;;;;;;20.47;70.69;99148.67;102665;1292;600120;-21
2023/09/24 06:28:30;;;;;;;5.50;2.40;;;;;;;21.41;68.04;99161.13;102617;1298;600080;-22
2023/09/24 06:31:01;;;;;;;5.70;2.80;;;;;;;21.43;67.42;99157.59;104835;1270;61189;-21
2023/09/24 06:33:29;;;;;;;10.10;2.60;;;;;;;21.13;68.00;99155.90;104738;1268;61136;-22
2023/09/24 06:43:40;;;;;;;8.20;3.40;;;;;;;20.95;69.97;99168.70;102621;1293;600651;-25
2023/09/24 06:46:08;;;;;;;11.70;3.00;;;;;;;20.90;70.06;99165.20;104832;1267;61158;-23
2023/09/24 06:48:36;;;;;;;9.10;3.10;;;;;;;20.97;69.95;99173.57;104839;1266;61069;-23
2023/09/24 06:51:08;;;;;;;10.20;2.70;;;;;;;20.94;69.95;99181.15;104882;1272;69954;-23
2023/09/24 06:53:37;;;;;;;8.70;2.90;;;;;;;21.62;69.14;99179.26;104777;1267;72056;-22
2023/09/24 07:03:51;;;;;;;6.80;2.90;;;;;;;22.39;65.71;99179.18;102676;1294;600762;-22
2023/09/24 07:06:21;;;;;;;5.00;3.00;;;;;;;22.44;65.47;99185.96;104908;1268;61058;-22
2023/09/24 07:08:50;;;;;;;5.90;2.90;;;;;;;22.35;65.68;99186.91;104844;1263;61059;-22
2023/09/24 07:18:57;;;;;;;6.20;2.70;;;;;;;22.79;64.50;99197.58;102524;1293;600214;-22
2023/09/24 07:29:05;;;;;;;4.60;2.80;;;;;;;22.48;64.84;99204.86;102521;1295;600209;-22
2023/09/24 07:31:34;;;;;;;5.00;2.70;;;;;;;22.67;64.96;99202.96;104776;1271;61156;-22
2023/09/24 07:34:05;;;;;;;6.30;3.10;;;;;;;22.81;64.30;99203.31;104813;1267;61174;-21
2023/09/24 07:36:33;;;;;;;5.20;3.00;;;;;;;23.11;64.26;99203.56;104709;1269;75018;-22
2023/09/24 07:39:15;;;;;;;7.20;2.90;;;;;;;23.51;63.14;99206.03;104796;1267;74426;-21
2023/09/24 07:49:29;;;;;;;5.30;3.00;;;;;;;24.64;59.80;99204.99;102466;1295;615404;-24
2023/09/24 07:51:56;;;;;;;7.50;3.10;;;;;;;24.74;58.39;99204.98;104836;1270;61139;-23
2023/09/24 07:54:23;;;;;;;7.10;3.10;;;;;;;24.55;58.70;99208.68;104907;1270;61505;-24
2023/09/24 07:56:51;;;;;;;4.10;2.90;;;;;;;24.54;59.52;99208.16;104953;1267;72244;-23
2023/09/24 07:59:19;;;;;;;6.30;3.50;;;;;;;24.57;58.67;99211.52;104892;1267;74494;-23
2023/09/24 08:01:46;;;;;;;9.70;3.20;;;;;;;24.44;58.94;99211.55;102521;1267;3160911;-23
2023/09/24 08:04:13;;;;;;;7.30;3.50;;;;;;;24.56;59.47;99212.02;105479;1257;61068;-24
2023/09/24 08:06:42;;;;;;;7.90;3.00;;;;;;;24.66;58.35;99210.35;105656;1257;61167;-24
2023/09/24 08:09:09;;;;;;;5.50;2.70;;;;;;;24.77;58.98;99210.91;105667;1257;72268;-23
2023/09/24 08:11:52;;;;;;;5.30;2.70;;;;;;;24.95;57.73;99213.05;105569;1260;72848;-23
2023/09/24 08:14:19;;;;;;;9.50;3.10;;;;;;;24.98;57.56;99208.13;105496;1257;72516;-23
2023/09/24 08:16:46;;;;;;;7.50;2.80;;;;;;;25.16;58.00;99204.52;109361;1254;59970;-23
2023/09/24 08:19:13;;;;;;;4.80;2.40;;;;;;;25.51;57.43;99207.55;109401;1254;60360;-24
2023/09/24 08:21:40;;;;;;;7.30;2.80;;;;;;;25.83;56.26;99205.68;109372;1254;73124;-24
2023/09/24 08:24:07;;;;;;;5.80;2.80;;;;;;;26.01;55.39;99210.61;109428;1254;73008;-24
2023/09/24 08:26:33;;;;;;;7.20;2.60;;;;;;;26.20;55.18;99210.25;109382;1254;71061;-24
2023/09/24 08:29:02;;;;;;;6.30;2.60;;;;;;;26.40;54.56;99207.38;109338;1255;59074;-24
2023/09/24 08:31:30;;;;;;;7.40;2.50;;;;;;;26.65;54.34;99211.84;109350;1256;59333;-24
2023/09/24 08:33:57;;;;;;;9.00;2.40;;;;;;;26.81;52.79;99206.54;109082;1257;72052;-24
2023/09/24 08:36:24;;;;;;;9.00;2.70;;;;;;;26.73;52.20;99205.85;109391;1255;74357;-22
2023/09/24 08:38:50;;;;;;;5.80;2.30;;;;;;;26.73;52.62;99202.27;109450;1254;71055;-21
2023/09/24 08:41:17;;;;;;;3.20;2.10;;;;;;;26.75;52.24;99199.22;109451;1254;60328;-22
2023/09/24 08:43:44;;;;;;;6.90;2.60;;;;;;;26.79;52.18;99209.85;109263;1254;60206;-22
2023/09/24 08:46:11;;;;;;;6.10;2.70;;;;;;;26.73;52.10;99208.73;109303;1254;73045;-22
2023/09/24 08:48:43;;;;;;;4.80;2.30;;;;;;;26.82;51.89;99207.65;109272;1254;72988;-22
2023/09/24 08:51:09;;;;;;;5.80;2.70;;;;;;;26.89;51.81;99207.63;109238;1254;72460;-21
2023/09/24 08:53:37;;;;;;;7.60;2.30;;;;;;;27.11;51.94;99201.95;109219;1254;60404;-24
2023/09/24 08:56:04;;;;;;;5.70;2.50;;;;;;;27.28;50.98;99201.14;109157;1254;59117;-22
2023/09/24 08:58:31;;;;;;;6.70;1.90;;;;;;;27.45;50.61;99202.01;109434;1254;71824;-22
2023/09/24 09:01:02;;;;;;;3.70;2.20;;;;;;;27.61;49.99;99196.44;109441;1254;72921;-21
2023/09/24 09:03:29;;;;;;;7.10;2.40;;;;;;;27.98;49.11;99196.40;109275;1254;72455;-21
2023/09/24 09:05:56;;;;;;;5.30;2.30;;;;;;;28.01;48.25;99196.14;109117;1254;60262;-22
2023/09/24 09:08:23;;;;;;;4.00;2.20;;;;;;;28.21;47.87;99198.76;109413;1254;59069;-22
2023/09/24 09:10:50;;;;;;;5.60;1.80;;;;;;;28.42;48.05;99200.67;109397;1254;72106;-22
2023/09/24 09:13:18;;;;;;;8.40;2.30;;;;;;;28.13;47.32;99205.02;109274;1254;74225;-22
2023/09/24 09:15:46;;;;;;;3.60;1.80;;;;;;;27.96;48.25;99208.62;109227;1254;72455;-21
2023/09/24 09:18:25;;;;;;;9.10;2.20;;;;;;;27.76;48.02;99208.76;109113;1254;60360;-22
2023/09/24 09:20:59;;;;;;;6.10;2.10;;;;;;;27.78;47.99;99209.48;109158;1254;60120;-24
2023/09/24 09:23:36;;;;;;;6.70;2.00;;;;;;;28.21;47.26;99204.54;109384;1255;72842;-24
2023/09/24 09:26:06;;;;;;;5.80;2.40;;;;;;;28.89;46.27;99204.19;109175;1255;73269;-24
2023/09/24 09:28:36;;;;;;;3.80;1.80;;;;;;;29.52;44.96;99208.61;109345;1256;72866;-24
2023/09/24 09:31:08;;;;;;;8.40;2.10;;;;;;;29.91;43.52;99213.65;109097;1256;58893;-25
2023/09/24 09:33:39;;;;;;;5.10;2.10;;;;;;;30.09;42.97;99212.97;109134;1257;58779;-22
2023/09/24 09:36:34;;;;;;;4.00;2.00;;;;;;;30.33;42.90;99211.90;109157;1256;64288;-22
2023/09/24 09:39:02;;;;;;;15.50;3.20;;;;;;;30.35;42.20;99213.59;109155;1255;64410;-22
2023/09/24 09:41:29;;;;;;;8.30;2.10;;;;;;;30.62;41.55;99216.30;109223;1256;63818;-22
2023/09/24 09:43:56;;;;;;;3.60;1.80;;;;;;;30.99;40.42;99223.73;109100;1257;58863;-22
2023/09/24 09:46:23;;;;;;;12.80;2.40;;;;;;;31.38;39.69;99226.67;109258;1256;58944;-22
2023/09/24 09:48:57;;;;;;;8.30;2.10;;;;;;;31.71;38.98;99223.52;109416;1255;62939;-22
2023/09/24 09:51:25;;;;;;;8.20;2.30;;;;;;;32.02;38.34;99220.76;109174;1255;64392;-22
2023/09/24 09:53:53;;;;;;;6.30;2.40;;;;;;;32.05;38.00;99222.77;109141;1256;64124;-23
2023/09/24 09:56:23;;;;;;;7.30;2.90;;;;;;;32.36;37.11;99222.89;109107;1255;58871;-22
2023/09/24 09:58:51;;;;;;;6.70;2.20;;;;;;;32.38;36.30;99223.44;109435;1256;58717;-22
2023/09/24 10:01:20;;;;;;;5.20;2.20;;;;;;;32.35;36.58;99218.30;109182;1255;62943;-22
2023/09/24 10:03:47;;;;;;;3.50;2.00;;;;;;;32.48;36.63;99223.63;109163;1256;65695;-22
2023/09/24 10:06:14;;;;;;;7.20;2.40;;;;;;;32.79;35.79;99223.30;109092;1256;62734;-22
2023/09/24 10:08:42;;;;;;;5.60;2.40;;;;;;;32.99;35.45;99224.30;109349;1255;58807;-22
2023/09/24 10:11:32;;;;;;;6.60;2.40;;;;;;;32.86;35.27;99218.56;109253;1256;58770;-22
2023/09/24 10:14:00;;;;;;;9.40;2.40;;;;;;;33.19;35.05;99221.41;109409;1256;64498;-22
2023/09/24 10:16:29;;;;;;;5.00;2.30;;;;;;;33.45;34.15;99218.27;109174;1256;64559;-22
2023/09/24 10:19:09;;;;;;;8.90;2.50;;;;;;;33.63;32.84;99221.58;109156;1257;62542;-23
2023/09/24 10:21:40;;;;;;;5.60;2.70;;;;;;;33.65;32.70;99219.41;109159;1257;58871;-22
2023/09/24 10:24:09;;;;;;;8.40;3.00;;;;;;;33.62;32.67;99219.05;109237;1256;59119;-22
2023/09/24 10:27:03;;;;;;;9.20;2.40;;;;;;;33.71;32.41;99219.89;109271;1256;64421;-22
2023/09/24 10:29:46;;;;;;;5.80;2.30;;;;;;;33.79;31.86;99223.42;109133;1257;65855;-22
2023/09/24 10:32:14;;;;;;;9.20;2.70;;;;;;;33.81;31.32;99226.45;109123;1257;63884;-22
2023/09/24 10:34:50;;;;;;;5.40;2.50;;;;;;;33.25;31.66;99224.97;109100;1257;58706;-22
2023/09/24 10:37:20;;;;;;;6.50;2.20;;;;;;;32.98;32.65;99225.65;109226;1257;58687;-22
2023/09/24 10:40:03;;;;;;;7.50;2.60;;;;;;;33.28;32.39;99235.11;109105;1256;64304;-22
2023/09/24 10:42:32;;;;;;;4.60;2.60;;;;;;;33.57;31.69;99235.79;109097;1257;65704;-22
2023/09/24 10:45:08;;;;;;;4.50;2.90;;;;;;;33.67;31.75;99238.04;108978;1258;63887;-22
2023/09/24 10:47:38;;;;;;;6.90;2.90;;;;;;;33.38;31.85;99240.40;109086;1257;59000;-22
2023/09/24 10:50:05;;;;;;;6.10;2.40;;;;;;;32.91;32.44;99238.55;109146;1257;58894;-22
2023/09/24 10:52:55;;;;;;;5.10;2.80;;;;;;;33.00;32.48;99238.20;109243;1256;64857;-22
2023/09/24 10:55:28;;;;;;;4.80;2.60;;;;;;;33.23;32.23;99238.79;109110;1257;64242;-22
2023/09/24 10:57:59;;;;;;;5.90;2.80;;;;;;;33.54;31.27;99240.38;109131;1257;62803;-22
2023/09/24 11:00:27;;;;;;;9.20;2.70;;;;;;;33.70;31.68;99238.68;109079;1257;58879;-22
2023/09/24 11:02:54;;;;;;;15.50;2.70;;;;;;;33.94;31.13;99235.88;109111;1257;58610;-22
2023/09/24 11:05:21;;;;;;;7.10;2.50;;;;;;;34.12;31.11;99235.69;109126;1257;64381;-22
2023/09/24 11:07:48;;;;;;;4.80;2.70;;;;;;;34.41;30.73;99235.08;109231;1256;65699;-22
2023/09/24 11:10:22;;;;;;;6.00;2.70;;;;;;;34.46;30.15;99231.37;109243;1256;63841;-22
2023/09/24 11:12:53;;;;;;;11.00;3.10;;;;;;;34.17;29.81;99230.16;109078;1257;58850;-22
2023/09/24 11:15:22;;;;;;;8.90;2.80;;;;;;;33.70;30.33;99225.62;109102;1257;58844;-22
2023/09/24 11:17:50;;;;;;;5.70;2.70;;;;;;;33.75;30.68;99226.19;109094;1257;62954;-22
2023/09/24 11:20:20;;;;;;;7.60;2.60;;;;;;;33.82;30.66;99224.49;108992;1257;65492;-22
2023/09/24 11:23:02;;;;;;;4.60;2.10;;;;;;;33.96;30.53;99222.69;108999;1257;64307;-22
2023/09/24 11:25:30;;;;;;;3.90;2.40;;;;;;;33.97;30.41;99223.02;109065;1257;59043;-22
2023/09/24 11:27:58;;;;;;;5.50;2.40;;;;;;;33.87;30.33;99221.23;109008;1257;58753;-22
2023/09/24 11:30:38;;;;;;;5.90;2.40;;;;;;;33.79;30.70;99224.94;109053;1257;64223;-22
2023/09/24 11:33:12;;;;;;;5.50;2.40;;;;;;;33.90;30.71;99228.91;108990;1256;64470;-22
2023/09/24 11:35:39;;;;;;;10.50;2.90;;;;;;;33.86;30.62;99230.75;109087;1257;63854;-22
2023/09/24 11:38:06;;;;;;;6.90;2.70;;;;;;;33.72;30.72;99233.92;108976;1257;58842;-22
2023/09/24 11:40:34;;;;;;;9.90;2.80;;;;;;;33.66;30.87;99235.61;109170;1257;58850;-22
2023/09/24 11:43:11;;;;;;;11.20;2.60;;;;;;;33.50;30.66;99232.63;109058;1256;64116;-22
2023/09/24 11:45:48;;;;;;;5.70;2.50;;;;;;;32.87;31.84;99231.90;109046;1257;65482;-22
2023/09/24 11:48:19;;;;;;;9.90;2.80;;;;;;;32.64;32.24;99230.70;109099;1257;63828;-22
2023/09/24 11:50:56;;;;;;;8.20;2.80;;;;;;;32.53;32.15;99230.09;108965;1262;58867;-22
2023/09/24 11:53:24;;;;;;;10.30;2.70;;;;;;;32.24;32.63;99231.67;109133;1257;58867;-22
2023/09/24 11:55:56;;;;;;;9.60;2.50;;;;;;;31.74;32.99;99231.69;109049;1256;64109;-22
2023/09/24 11:58:26;;;;;;;10.60;2.90;;;;;;;31.75;33.71;99232.48;109017;1258;65557;-22
2023/09/24 12:00:54;;;;;;;5.90;2.30;;;;;;;32.09;33.25;99229.19;109044;1259;63859;-22
2023/09/24 12:03:21;;;;;;;8.70;2.30;;;;;;;32.33;32.70;99224.77;108969;1259;58791;-22
2023/09/24 12:05:48;;;;;;;10.10;2.70;;;;;;;32.50;32.36;99224.60;109143;1256;58785;-22
2023/09/24 12:08:15;;;;;;;5.70;2.20;;;;;;;32.62;31.89;99226.89;108979;1257;64049;-22
2023/09/24 12:10:46;;;;;;;7.20;2.30;;;;;;;32.66;31.97;99232.61;109147;1257;65549;-22
2023/09/24 12:13:13;;;;;;;7.90;2.90;;;;;;;32.62;32.23;99232.55;109083;1257;64201;-22
2023/09/24 12:15:40;;;;;;;5.50;2.30;;;;;;;32.73;32.38;99231.95;109039;1257;58733;-22
2023/09/24 12:18:07;;;;;;;8.70;2.50;;;;;;;32.75;31.98;99226.25;109170;1257;59027;-22
2023/09/24 12:20:35;;;;;;;7.40;3.20;;;;;;;32.54;32.50;99229.98;109143;1257;64018;-21
2023/09/24 12:23:06;;;;;;;6.70;2.60;;;;;;;32.31;32.95;99229.80;109105;1257;65686;-22
2023/09/24 12:25:36;;;;;;;10.40;2.60;;;;;;;32.12;33.24;99229.63;109069;1257;62899;-21
2023/09/24 12:28:06;;;;;;;;;;;;;;;31.86;33.20;99226.88;108972;1262;58854;-22
2023/09/24 12:30:34;;;;;;;5.30;2.80;;;;;;;31.83;32.75;99225.73;109017;1257;58873;-22
2023/09/24 12:33:01;;;;;;;8.90;2.60;;;;;;;31.88;32.82;99223.83;108998;1259;63791;-21
2023/09/24 12:35:28;;;;;;;5.60;2.70;;;;;;;32.00;33.01;99226.83;109003;1257;65666;-21
2023/09/24 12:37:55;;;;;;;6.70;2.40;;;;;;;32.07;33.13;99229.98;109065;1260;63820;-22
2023/09/24 12:40:22;;;;;;;12.50;2.60;;;;;;;32.14;32.83;99222.48;109099;1257;58764;-22
2023/09/24 12:42:49;;;;;;;7.50;2.70;;;;;;;32.10;32.29;99219.71;109127;1256;58859;-22
2023/09/24 12:45:16;;;;;;;9.10;2.50;;;;;;;32.03;32.80;99224.21;109318;1255;63968;-22
2023/09/24 12:47:44;;;;;;;6.30;2.30;;;;;;;32.08;32.49;99224.39;109392;1256;72780;-22
2023/09/24 12:50:12;;;;;;;11.40;2.60;;;;;;;32.18;32.51;99225.25;109339;1255;63750;-22
2023/09/24 12:52:44;;;;;;;14.00;3.00;;;;;;;32.20;31.93;99221.05;109034;1256;58938;-22
2023/09/24 12:55:12;;;;;;;6.50;2.30;;;;;;;32.24;32.09;99223.36;109181;1256;58761;-22
2023/09/24 12:57:39;;;;;;;7.20;2.50;;;;;;;32.16;31.80;99225.48;109118;1257;63752;-22
2023/09/24 13:00:10;;;;;;;11.60;2.50;;;;;;;32.12;32.58;99223.02;109358;1255;64372;-22
2023/09/24 13:02:38;;;;;;;10.50;2.40;;;;;;;32.05;32.72;99228.37;109142;1255;62621;-22
2023/09/24 13:05:06;;;;;;;8.70;2.30;;;;;;;32.03;32.76;99227.06;109098;1256;58987;-22
2023/09/24 13:07:32;;;;;;;8.90;2.60;;;;;;;31.98;32.64;99225.00;109418;1255;58713;-21
2023/09/24 13:10:00;;;;;;;6.40;2.50;;;;;;;31.37;32.99;99231.04;109361;1255;64083;-22
2023/09/24 13:12:27;;;;;;;5.40;2.50;;;;;;;31.25;33.59;99233.50;109116;1255;65808;-22
2023/09/24 13:14:54;;;;;;;5.40;2.40;;;;;;;30.77;34.27;99237.73;109361;1256;63843;-21
2023/09/24 13:17:20;;;;;;;8.60;2.50;;;;;;;30.71;34.75;99234.23;109326;1255;58791;-22
2023/09/24 13:19:47;;;;;;;5.40;2.30;;;;;;;30.67;34.59;99240.55;109355;1256;58689;-21
2023/09/24 13:22:14;;;;;;;11.40;2.70;;;;;;;30.75;34.46;99244.33;109326;1255;64937;-22
2023/09/24 13:24:41;;;;;;;7.20;3.00;;;;;;;30.70;34.48;99248.59;109352;1255;65664;-22
2023/09/24 13:27:08;;;;;;;8.00;2.70;;;;;;;30.77;34.49;99250.04;109336;1256;63784;-22
2023/09/24 13:29:35;;;;;;;6.70;2.60;;;;;;;30.73;34.62;99253.05;109284;1255;58808;-22
2023/09/24 13:32:02;;;;;;;7.40;2.80;;;;;;;30.43;35.00;99251.83;109315;1255;58974;-22
2023/09/24 13:34:31;;;;;;;7.10;2.50;;;;;;;30.18;35.27;99248.31;109328;1255;64232;-22
2023/09/24 13:36:59;;;;;;;7.80;3.00;;;;;;;30.00;35.63;99253.98;109203;1255;73292;-22
2023/09/24 13:39:26;;;;;;;7.00;2.40;;;;;;;30.09;35.17;99254.80;109285;1256;63972;-22
2023/09/24 13:41:53;;;;;;;4.50;2.40;;;;;;;30.18;34.90;99251.86;109101;1256;60134;-21
2023/09/24 13:44:21;;;;;;;10.50;2.60;;;;;;;30.23;35.11;99254.65;109310;1256;60395;-21
2023/09/24 13:46:48;;;;;;;8.70;2.90;;;;;;;30.24;34.66;99249.35;109108;1257;73724;-22
2023/09/24 13:49:15;;;;;;;5.40;2.30;;;;;;;30.06;35.44;99257.50;109280;1256;74139;-22
2023/09/24 13:51:42;;;;;;;11.10;2.60;;;;;;;30.00;35.53;99263.00;109274;1256;63814;-22
2023/09/24 13:54:09;;;;;;;7.70;2.50;;;;;;;29.82;35.98;99260.48;109279;1255;60159;-22
2023/09/24 13:56:37;;;;;;;5.80;2.60;;;;;;;30.00;35.95;99262.47;109039;1256;58790;-21
2023/09/24 13:59:04;;;;;;;5.80;2.60;;;;;;;30.11;36.09;99259.33;109315;1256;74023;-21
2023/09/24 14:01:31;;;;;;;9.40;3.10;;;;;;;30.16;35.94;99258.25;109325;1256;65585;-21
2023/09/24 14:03:58;;;;;;;8.70;2.50;;;;;;;30.17;35.80;99258.55;109267;1256;73654;-22
2023/09/24 14:06:26;;;;;;;6.20;2.60;;;;;;;30.28;35.81;99254.44;109257;1256;60162;-22
2023/09/24 14:14:24;;;;;;;11.00;3.00;;;;;;;30.19;36.29;99259.39;109118;1256;73124;-22
2023/09/24 14:16:51;;;;;;;7.60;2.80;;;;;;;30.19;35.80;99258.53;109226;1255;70956;-22
2023/09/24 14:19:18;;;;;;;5.70;2.70;;;;;;;30.14;35.83;99262.92;109285;1257;58739;-21
2023/09/24 14:21:45;;;;;;;9.80;2.90;;;;;;;30.15;36.11;99259.60;109318;1255;58832;-22
2023/09/24 14:24:12;;;;;;;6.60;2.60;;;;;;;30.23;35.61;99259.05;109198;1256;65075;-22
2023/09/24 14:26:39;;;;;;;4.70;2.30;;;;;;;30.19;36.23;99264.48;109073;1255;74281;-22
2023/09/24 14:29:11;;;;;;;3.90;2.50;;;;;;;30.22;35.96;99269.03;109242;1257;71685;-22
2023/09/24 14:31:41;;;;;;;9.20;2.80;;;;;;;30.11;35.84;99273.02;109098;1257;60283;-21
2023/09/24 14:34:10;;;;;;;7.20;2.70;;;;;;;30.03;35.70;99276.20;109139;1257;60433;-22
2023/09/24 14:36:38;;;;;;;7.80;2.50;;;;;;;29.99;35.71;99274.11;109010;1257;63744;-22
2023/09/24 14:39:09;;;;;;;8.00;2.80;;;;;;;29.96;36.09;99276.35;109091;1257;73090;-21
2023/09/24 14:41:39;;;;;;;8.60;2.50;;;;;;;29.84;36.12;99278.27;109128;1257;63936;-22
2023/09/24 14:44:10;;;;;;;6.30;2.50;;;;;;;29.63;36.52;99283.71;109099;1257;61220;-22
2023/09/24 14:46:39;;;;;;;4.40;2.30;;;;;;;29.56;36.76;99285.27;109018;1256;58897;-22
2023/09/24 14:49:08;;;;;;;8.80;2.90;;;;;;;29.37;37.84;99285.72;109151;1256;72398;-21
2023/09/24 14:51:39;;;;;;;5.70;2.40;;;;;;;29.01;39.09;99288.39;109107;1257;74200;-21
2023/09/24 14:54:10;;;;;;;7.50;2.50;;;;;;;28.79;39.87;99288.29;109216;1257;71392;-22
2023/09/24 14:56:40;;;;;;;7.30;2.90;;;;;;;28.58;40.81;99293.52;109087;1259;59026;-21
2023/09/24 14:59:12;;;;;;;6.30;2.90;;;;;;;28.42;41.09;99298.52;109111;1257;60265;-21
2023/09/24 15:01:44;;;;;;;7.70;2.90;;;;;;;28.29;41.63;99302.89;109099;1256;73895;-21
2023/09/24 15:04:14;;;;;;;8.20;2.60;;;;;;;28.13;42.15;99310.91;109136;1257;73897;-22